sensor_id;sensor_type;location;lat;lon;timestamp;pressure;altitude;pressure_sealevel;temperature;humidity
38558;BME280;24333;42.626;23.308;2023-01-26T00:00:53;92580.75;;;-1.65;100.00
38558;BME280;24333;42.626;23.308;2023-01-26T00:03:20;92586.97;;;-1.70;100.00
38558;BME280;24333;42.626;23.308;2023-01-26T00:05:45;92586.16;;;-1.70;100.00
38558;BME280;24333;42.626;23.308;2023-01-26T00:08:11;92574.47;;;-1.75;100.00
38558;BME280;24333;42.626;23.308;2023-01-26T00:10:38;92576.03;;;-1.73;100.00
38558;BME280;24333;42.626;23.308;2023-01-26T00:13:05;92581.31;;;-1.68;100.00
38558;BME280;24333;42.626;23.308;2023-01-26T00:15:33;92580.88;;;-1.76;100.00
38558;BME280;24333;42.626;23.308;2023-01-26T00:17:59;92593.09;;;-1.69;100.00
38558;BME280;24333;42.626;23.308;2023-01-26T00:20:25;92579.44;;;-1.87;100.00
38558;BME280;24333;42.626;23.308;2023-01-26T00:22:51;92574.38;;;-1.89;100.00
38558;BME280;24333;42.626;23.308;2023-01-26T00:25:16;92587.69;;;-1.64;100.00
38558;BME280;24333;42.626;23.308;2023-01-26T00:27:41;92580.81;;;-1.70;100.00
38558;BME280;24333;42.626;23.308;2023-01-26T00:30:07;92578.22;;;-1.76;100.00
38558;BME280;24333;42.626;23.308;2023-01-26T00:32:34;92562.25;;;-1.81;100.00
38558;BME280;24333;42.626;23.308;2023-01-26T00:35:00;92540.94;;;-1.86;100.00
38558;BME280;24333;42.626;23.308;2023-01-26T00:37:25;92551.31;;;-1.84;100.00
38558;BME280;24333;42.626;23.308;2023-01-26T00:39:51;92547.00;;;-1.80;100.00
38558;BME280;24333;42.626;23.308;2023-01-26T00:42:16;92568.38;;;-1.80;100.00
38558;BME280;24333;42.626;23.308;2023-01-26T00:44:42;92562.25;;;-1.81;100.00
38558;BME280;24333;42.626;23.308;2023-01-26T00:47:10;92552.63;;;-1.82;100.00
38558;BME280;24333;42.626;23.308;2023-01-26T00:49:36;92551.47;;;-1.95;100.00
38558;BME280;24333;42.626;23.308;2023-01-26T00:52:02;92555.97;;;-1.90;100.00
38558;BME280;24333;42.626;23.308;2023-01-26T00:54:28;92553.28;;;-1.90;100.00
38558;BME280;24333;42.626;23.308;2023-01-26T00:56:53;92544.47;;;-1.91;100.00
38558;BME280;24333;42.626;23.308;2023-01-26T00:59:19;92548.53;;;-1.93;100.00
38558;BME280;24333;42.626;23.308;2023-01-26T01:01:45;92543.97;;;-1.93;100.00
38558;BME280;24333;42.626;23.308;2023-01-26T01:04:10;92531.44;;;-1.97;100.00
38558;BME280;24333;42.626;23.308;2023-01-26T01:06:36;92532.69;;;-1.90;100.00
38558;BME280;24333;42.626;23.308;2023-01-26T01:41:02;92518.81;;;-2.11;100.00
38558;BME280;24333;42.626;23.308;2023-01-26T01:43:28;92513.97;;;-2.09;100.00
38558;BME280;24333;42.626;23.308;2023-01-26T01:45:54;92517.75;;;-2.10;100.00
38558;BME280;24333;42.626;23.308;2023-01-26T01:50:45;92501.84;;;-2.20;100.00
38558;BME280;24333;42.626;23.308;2023-01-26T01:53:17;92518.59;;;-2.14;100.00
38558;BME280;24333;42.626;23.308;2023-01-26T01:55:50;92505.53;;;-2.16;100.00
38558;BME280;24333;42.626;23.308;2023-01-26T01:58:17;92511.31;;;-2.09;100.00
38558;BME280;24333;42.626;23.308;2023-01-26T02:00:44;92510.97;;;-2.02;100.00
38558;BME280;24333;42.626;23.308;2023-01-26T02:03:10;92493.75;;;-2.15;100.00
38558;BME280;24333;42.626;23.308;2023-01-26T02:08:38;92505.97;;;-2.09;100.00
38558;BME280;24333;42.626;23.308;2023-01-26T02:11:10;92494.78;;;-2.11;100.00
38558;BME280;24333;42.626;23.308;2023-01-26T02:13:38;92480.47;;;-2.20;100.00
38558;BME280;24333;42.626;23.308;2023-01-26T02:16:05;92478.88;;;-2.21;100.00
38558;BME280;24333;42.626;23.308;2023-01-26T02:18:31;92481.25;;;-2.20;100.00
38558;BME280;24333;42.626;23.308;2023-01-26T02:21:01;92475.56;;;-2.13;100.00
38558;BME280;24333;42.626;23.308;2023-01-26T02:26:25;92463.22;;;-2.09;100.00
38558;BME280;24333;42.626;23.308;2023-01-26T02:28:51;92455.69;;;-2.07;100.00
38558;BME280;24333;42.626;23.308;2023-01-26T02:31:17;92469.28;;;-2.03;100.00
38558;BME280;24333;42.626;23.308;2023-01-26T02:33:43;92453.97;;;-2.16;100.00
38558;BME280;24333;42.626;23.308;2023-01-26T02:36:23;92456.84;;;-2.13;100.00
38558;BME280;24333;42.626;23.308;2023-01-26T02:41:22;92457.88;;;-2.09;100.00
38558;BME280;24333;42.626;23.308;2023-01-26T02:44:08;92454.47;;;-2.14;100.00
38558;BME280;24333;42.626;23.308;2023-01-26T02:46:34;92436.22;;;-2.26;100.00
38558;BME280;24333;42.626;23.308;2023-01-26T02:49:00;92444.84;;;-2.15;100.00
38558;BME280;24333;42.626;23.308;2023-01-26T02:51:44;92434.47;;;-2.17;100.00
38558;BME280;24333;42.626;23.308;2023-01-26T02:54:09;92427.97;;;-2.11;100.00
38558;BME280;24333;42.626;23.308;2023-01-26T02:56:55;92417.84;;;-2.14;100.00
38558;BME280;24333;42.626;23.308;2023-01-26T02:59:20;92419.72;;;-2.14;100.00
38558;BME280;24333;42.626;23.308;2023-01-26T03:01:48;92401.69;;;-2.23;100.00
38558;BME280;24333;42.626;23.308;2023-01-26T03:04:18;92419.22;;;-2.16;100.00
38558;BME280;24333;42.626;23.308;2023-01-26T03:06:43;92414.69;;;-2.16;100.00
38558;BME280;24333;42.626;23.308;2023-01-26T03:54:51;92344.53;;;-2.60;100.00
38558;BME280;24333;42.626;23.308;2023-01-26T03:57:35;92332.72;;;-2.73;100.00
38558;BME280;24333;42.626;23.308;2023-01-26T04:00:01;92334.03;;;-2.70;100.00
38558;BME280;24333;42.626;23.308;2023-01-26T04:02:26;92348.72;;;-2.73;100.00
38558;BME280;24333;42.626;23.308;2023-01-26T04:05:10;92335.19;;;-2.77;100.00
38558;BME280;24333;42.626;23.308;2023-01-26T04:10:23;92342.53;;;-2.68;100.00
38558;BME280;24333;42.626;23.308;2023-01-26T04:13:23;92358.03;;;-2.51;100.00
38558;BME280;24333;42.626;23.308;2023-01-26T04:16:21;92334.88;;;-2.75;100.00
38558;BME280;24333;42.626;23.308;2023-01-26T04:19:05;92325.72;;;-2.69;100.00
38558;BME280;24333;42.626;23.308;2023-01-26T04:21:59;92329.09;;;-2.63;100.00
38558;BME280;24333;42.626;23.308;2023-01-26T04:24:34;92328.44;;;-2.55;100.00
38558;BME280;24333;42.626;23.308;2023-01-26T04:27:19;92318.06;;;-2.56;100.00
38558;BME280;24333;42.626;23.308;2023-01-26T04:29:55;92316.84;;;-2.64;100.00
38558;BME280;24333;42.626;23.308;2023-01-26T04:32:21;92307.91;;;-2.73;100.00
38558;BME280;24333;42.626;23.308;2023-01-26T04:34:49;92314.41;;;-2.80;100.00
38558;BME280;24333;42.626;23.308;2023-01-26T04:37:21;92319.44;;;-2.59;100.00
38558;BME280;24333;42.626;23.308;2023-01-26T04:39:52;92309.91;;;-2.65;100.00
38558;BME280;24333;42.626;23.308;2023-01-26T04:42:39;92310.78;;;-2.70;100.00
38558;BME280;24333;42.626;23.308;2023-01-26T04:45:09;92317.94;;;-2.65;100.00
38558;BME280;24333;42.626;23.308;2023-01-26T04:47:36;92303.72;;;-2.80;100.00
38558;BME280;24333;42.626;23.308;2023-01-26T04:50:25;92313.59;;;-2.61;100.00
38558;BME280;24333;42.626;23.308;2023-01-26T11:03:04;92031.41;;;0.64;100.00
38558;BME280;24333;42.626;23.308;2023-01-26T11:05:34;92045.75;;;0.77;100.00
38558;BME280;24333;42.626;23.308;2023-01-26T11:08:00;92025.25;;;0.73;100.00
38558;BME280;24333;42.626;23.308;2023-01-26T12:15:08;91941.09;;;0.77;100.00
38558;BME280;24333;42.626;23.308;2023-01-26T12:23:12;91884.34;;;0.49;100.00
38558;BME280;24333;42.626;23.308;2023-01-26T12:26:11;91923.41;;;0.67;100.00
38558;BME280;24333;42.626;23.308;2023-01-26T12:31:32;91922.19;;;0.65;100.00
38558;BME280;24333;42.626;23.308;2023-01-26T12:34:08;91898.84;;;0.56;100.00
38558;BME280;24333;42.626;23.308;2023-01-26T12:36:41;91921.06;;;0.75;100.00
38558;BME280;24333;42.626;23.308;2023-01-26T12:42:36;91914.72;;;0.70;100.00
38558;BME280;24333;42.626;23.308;2023-01-26T12:45:13;91906.22;;;0.68;100.00
38558;BME280;24333;42.626;23.308;2023-01-26T12:47:55;91893.63;;;0.51;100.00
38558;BME280;24333;42.626;23.308;2023-01-26T12:50:48;91901.16;;;0.76;100.00
38558;BME280;24333;42.626;23.308;2023-01-26T12:55:53;91907.28;;;0.85;100.00
38558;BME280;24333;42.626;23.308;2023-01-26T12:58:27;91907.28;;;0.85;100.00
38558;BME280;24333;42.626;23.308;2023-01-26T13:01:15;91872.13;;;0.69;100.00
38558;BME280;24333;42.626;23.308;2023-01-26T13:03:50;91901.56;;;0.86;100.00
38558;BME280;24333;42.626;23.308;2023-01-26T13:29:33;91872.91;;;0.69;100.00
38558;BME280;24333;42.626;23.308;2023-01-26T13:34:50;91877.88;;;0.50;100.00
38558;BME280;24333;42.626;23.308;2023-01-26T13:50:30;91883.13;;;0.37;100.00
38558;BME280;24333;42.626;23.308;2023-01-26T13:52:57;91880.91;;;0.39;100.00
38558;BME280;24333;42.626;23.308;2023-01-26T13:55:26;91887.97;;;0.44;100.00
38558;BME280;24333;42.626;23.308;2023-01-26T13:58:14;91870.66;;;0.33;100.00
38558;BME280;24333;42.626;23.308;2023-01-26T14:00:40;91874.09;;;0.33;100.00
38558;BME280;24333;42.626;23.308;2023-01-26T14:05:41;91857.06;;;0.29;100.00
38558;BME280;24333;42.626;23.308;2023-01-26T14:08:12;91851.88;;;0.24;100.00
38558;BME280;24333;42.626;23.308;2023-01-26T14:10:42;91852.97;;;0.32;100.00
38558;BME280;24333;42.626;23.308;2023-01-26T14:13:19;91850.47;;;0.26;100.00
38558;BME280;24333;42.626;23.308;2023-01-26T14:15:57;91849.84;;;0.30;100.00
38558;BME280;24333;42.626;23.308;2023-01-26T14:18:28;91860.22;;;0.40;100.00
38558;BME280;24333;42.626;23.308;2023-01-26T14:21:05;91846.81;;;0.31;100.00
38558;BME280;24333;42.626;23.308;2023-01-26T14:23:41;91838.78;;;0.31;100.00
38558;BME280;24333;42.626;23.308;2023-01-26T14:28:51;91849.03;;;0.29;100.00
38558;BME280;24333;42.626;23.308;2023-01-26T14:39:13;91837.19;;;0.39;100.00
38558;BME280;24333;42.626;23.308;2023-01-26T14:41:40;91816.44;;;0.18;100.00
38558;BME280;24333;42.626;23.308;2023-01-26T14:44:10;91813.88;;;0.22;100.00
38558;BME280;24333;42.626;23.308;2023-01-26T14:46:59;91831.47;;;0.49;100.00
38558;BME280;24333;42.626;23.308;2023-01-26T14:51:55;91838.56;;;0.54;100.00
38558;BME280;24333;42.626;23.308;2023-01-26T14:54:27;91801.28;;;0.22;100.00
38558;BME280;24333;42.626;23.308;2023-01-26T15:00:34;91851.13;;;0.62;100.00
38558;BME280;24333;42.626;23.308;2023-01-26T15:03:05;91812.28;;;0.30;100.00
38558;BME280;24333;42.626;23.308;2023-01-26T15:05:36;91846.88;;;0.61;100.00
38558;BME280;24333;42.626;23.308;2023-01-26T15:08:18;91806.56;;;0.40;100.00
38558;BME280;24333;42.626;23.308;2023-01-26T15:10:58;91814.78;;;0.43;100.00
38558;BME280;24333;42.626;23.308;2023-01-26T15:13:48;91809.72;;;0.33;100.00
38558;BME280;24333;42.626;23.308;2023-01-26T15:16:21;91789.69;;;0.39;100.00
38558;BME280;24333;42.626;23.308;2023-01-26T15:19:23;91829.19;;;0.69;100.00
38558;BME280;24333;42.626;23.308;2023-01-26T15:47:41;91770.69;;;0.53;100.00
38558;BME280;24333;42.626;23.308;2023-01-26T15:50:06;91757.44;;;0.48;100.00
38558;BME280;24333;42.626;23.308;2023-01-26T15:52:32;91740.88;;;0.46;100.00
38558;BME280;24333;42.626;23.308;2023-01-26T16:05:23;91723.88;;;0.42;100.00
38558;BME280;24333;42.626;23.308;2023-01-26T16:07:49;91716.94;;;0.41;100.00
38558;BME280;24333;42.626;23.308;2023-01-26T16:10:16;91729.38;;;0.46;100.00
38558;BME280;24333;42.626;23.308;2023-01-26T16:12:48;91735.81;;;0.53;100.00
38558;BME280;24333;42.626;23.308;2023-01-26T16:15:31;91718.78;;;0.49;100.00
38558;BME280;24333;42.626;23.308;2023-01-26T16:18:02;91713.78;;;0.39;100.00
38558;BME280;24333;42.626;23.308;2023-01-26T16:24:05;91753.25;;;0.68;100.00
38558;BME280;24333;42.626;23.308;2023-01-26T16:31:41;91722.22;;;0.59;100.00
38558;BME280;24333;42.626;23.308;2023-01-26T17:06:18;91698.22;;;0.83;100.00
38558;BME280;24333;42.626;23.308;2023-01-26T17:08:44;91701.09;;;0.78;100.00
38558;BME280;24333;42.626;23.308;2023-01-26T17:11:23;91704.88;;;0.77;100.00
38558;BME280;24333;42.626;23.308;2023-01-26T17:13:49;91691.50;;;0.47;100.00
38558;BME280;24333;42.626;23.308;2023-01-26T17:16:20;91708.13;;;0.40;100.00
38558;BME280;24333;42.626;23.308;2023-01-26T17:18:47;91707.13;;;0.45;100.00
38558;BME280;24333;42.626;23.308;2023-01-26T17:21:14;91693.59;;;0.03;100.00
38558;BME280;24333;42.626;23.308;2023-01-26T17:23:40;91657.56;;;-0.09;100.00
38558;BME280;24333;42.626;23.308;2023-01-26T17:26:10;91695.59;;;0.14;100.00
38558;BME280;24333;42.626;23.308;2023-01-26T17:28:37;91678.16;;;-0.01;100.00
38558;BME280;24333;42.626;23.308;2023-01-26T17:31:10;91679.47;;;-0.16;100.00
38558;BME280;24333;42.626;23.308;2023-01-26T17:33:37;91675.63;;;-0.36;100.00
38558;BME280;24333;42.626;23.308;2023-01-26T17:43:48;91626.69;;;-0.63;100.00
38558;BME280;24333;42.626;23.308;2023-01-26T17:46:19;91655.31;;;-0.54;100.00
38558;BME280;24333;42.626;23.308;2023-01-26T17:48:45;91646.03;;;-0.48;100.00
38558;BME280;24333;42.626;23.308;2023-01-26T17:51:19;91642.09;;;-0.51;100.00
38558;BME280;24333;42.626;23.308;2023-01-26T17:53:46;91638.31;;;-0.50;100.00
38558;BME280;24333;42.626;23.308;2023-01-26T17:56:17;91614.84;;;-0.62;100.00
38558;BME280;24333;42.626;23.308;2023-01-26T17:58:47;91657.03;;;-0.41;100.00
38558;BME280;24333;42.626;23.308;2023-01-26T18:01:13;91649.78;;;-0.40;100.00
38558;BME280;24333;42.626;23.308;2023-01-26T18:03:40;91647.44;;;-0.42;100.00
38558;BME280;24333;42.626;23.308;2023-01-26T18:06:06;91632.66;;;-0.57;100.00
38558;BME280;24333;42.626;23.308;2023-01-26T18:08:32;91631.41;;;-0.60;100.00
38558;BME280;24333;42.626;23.308;2023-01-26T18:11:02;91615.97;;;-0.63;100.00
38558;BME280;24333;42.626;23.308;2023-01-26T18:13:29;91631.53;;;-0.47;100.00
38558;BME280;24333;42.626;23.308;2023-01-26T18:15:55;91634.53;;;-0.49;100.00
38558;BME280;24333;42.626;23.308;2023-01-26T18:18:23;91626.66;;;-0.54;100.00
38558;BME280;24333;42.626;23.308;2023-01-26T18:20:49;91587.81;;;-0.78;100.00
38558;BME280;24333;42.626;23.308;2023-01-26T18:23:17;91600.53;;;-0.66;100.00
38558;BME280;24333;42.626;23.308;2023-01-26T18:25:43;91590.50;;;-0.78;100.00
38558;BME280;24333;42.626;23.308;2023-01-26T18:28:09;91605.25;;;-0.63;100.00
38558;BME280;24333;42.626;23.308;2023-01-26T18:30:38;91589.84;;;-0.75;100.00
38558;BME280;24333;42.626;23.308;2023-01-26T18:33:05;91615.94;;;-0.54;100.00
38558;BME280;24333;42.626;23.308;2023-01-26T18:35:30;91584.53;;;-0.83;100.00
38558;BME280;24333;42.626;23.308;2023-01-26T19:09:18;91541.28;;;-0.94;100.00
38558;BME280;24333;42.626;23.308;2023-01-26T19:11:44;91547.00;;;-0.75;100.00
38558;BME280;24333;42.626;23.308;2023-01-26T19:19:20;91523.31;;;-0.94;100.00
38558;BME280;24333;42.626;23.308;2023-01-26T19:21:48;91525.06;;;-0.98;100.00
38558;BME280;24333;42.626;23.308;2023-01-26T20:06:51;91504.75;;;-1.08;100.00
38558;BME280;24333;42.626;23.308;2023-01-26T20:09:30;91518.13;;;-0.99;100.00
38558;BME280;24333;42.626;23.308;2023-01-26T20:11:58;91500.69;;;-1.05;100.00
38558;BME280;24333;42.626;23.308;2023-01-26T20:14:24;91490.28;;;-1.07;100.00
38558;BME280;24333;42.626;23.308;2023-01-26T20:16:50;91492.81;;;-1.02;100.00
38558;BME280;24333;42.626;23.308;2023-01-26T20:19:18;91479.56;;;-0.98;100.00
38558;BME280;24333;42.626;23.308;2023-01-26T20:21:44;91505.81;;;-0.82;100.00
38558;BME280;24333;42.626;23.308;2023-01-26T20:24:14;91481.91;;;-0.96;100.00
38558;BME280;24333;42.626;23.308;2023-01-26T20:26:43;91482.50;;;-0.91;100.00
38558;BME280;24333;42.626;23.308;2023-01-26T20:29:15;91500.81;;;-0.63;100.00
38558;BME280;24333;42.626;23.308;2023-01-26T20:31:41;91468.31;;;-0.82;100.00
38558;BME280;24333;42.626;23.308;2023-01-26T20:34:11;91449.13;;;-0.84;100.00
38558;BME280;24333;42.626;23.308;2023-01-26T20:36:39;91448.78;;;-0.83;100.00
38558;BME280;24333;42.626;23.308;2023-01-26T20:39:12;91443.69;;;-0.76;100.00
38558;BME280;24333;42.626;23.308;2023-01-26T20:41:41;91450.78;;;-0.71;100.00
38558;BME280;24333;42.626;23.308;2023-01-26T20:44:07;91462.31;;;-0.79;100.00
38558;BME280;24333;42.626;23.308;2023-01-26T20:46:39;91457.44;;;-0.77;100.00
38558;BME280;24333;42.626;23.308;2023-01-26T20:49:07;91448.41;;;-0.73;100.00
38558;BME280;24333;42.626;23.308;2023-01-26T20:51:34;91443.16;;;-0.90;100.00
38558;BME280;24333;42.626;23.308;2023-01-26T20:54:04;91454.75;;;-0.77;100.00
38558;BME280;24333;42.626;23.308;2023-01-26T20:56:33;91476.75;;;-0.71;100.00
38558;BME280;24333;42.626;23.308;2023-01-26T20:58:59;91489.84;;;-0.70;100.00
38558;BME280;24333;42.626;23.308;2023-01-26T21:01:25;91439.88;;;-0.96;100.00
38558;BME280;24333;42.626;23.308;2023-01-26T21:03:52;91467.50;;;-0.74;100.00
38558;BME280;24333;42.626;23.308;2023-01-26T21:06:19;91449.28;;;-0.90;100.00
38558;BME280;24333;42.626;23.308;2023-01-26T21:08:47;91440.28;;;-0.85;100.00
38558;BME280;24333;42.626;23.308;2023-01-26T21:11:14;91444.00;;;-0.98;100.00
38558;BME280;24333;42.626;23.308;2023-01-26T22:34:59;91409.94;;;-1.28;100.00
38558;BME280;24333;42.626;23.308;2023-01-26T22:37:25;91421.50;;;-1.06;100.00
38558;BME280;24333;42.626;23.308;2023-01-26T22:39:53;91407.47;;;-1.03;100.00
38558;BME280;24333;42.626;23.308;2023-01-26T22:50:10;91383.13;;;-1.10;100.00
38558;BME280;24333;42.626;23.308;2023-01-26T22:52:39;91414.13;;;-0.79;100.00
38558;BME280;24333;42.626;23.308;2023-01-26T22:55:08;91384.13;;;-0.94;100.00
38558;BME280;24333;42.626;23.308;2023-01-26T22:57:34;91360.28;;;-1.08;100.00
38558;BME280;24333;42.626;23.308;2023-01-26T23:00:03;91364.13;;;-1.18;100.00
